createdAt,value
2017-12-10T00:01:04.284Z,3.58
2017-12-10T00:03:32.486Z,5.95
2017-12-10T00:05:59.881Z,2.85
2017-12-10T00:08:27.351Z,4.40
2017-12-10T00:10:55.512Z,7.72
2017-12-10T00:13:23.028Z,5.30
2017-12-10T00:15:51.216Z,5.85
2017-12-10T00:18:19.569Z,5.85
2017-12-10T00:20:46.991Z,5.35
2017-12-10T00:23:15.314Z,4.97
2017-12-10T00:25:42.712Z,5.72
2017-12-10T00:28:10.132Z,4.68
2017-12-10T00:30:37.544Z,3.80
2017-12-10T00:33:05.756Z,7.70
2017-12-10T00:35:33.171Z,3.58
2017-12-10T00:38:00.621Z,4.30
2017-12-10T00:40:28.100Z,6.55
2017-12-10T00:42:55.519Z,6.65
2017-12-10T00:45:22.932Z,4.22
2017-12-10T00:47:50.352Z,5.82
2017-12-10T00:50:17.842Z,4.18
2017-12-10T00:52:45.256Z,5.87
2017-12-10T00:55:12.685Z,5.35
2017-12-10T00:57:40.120Z,8.57
2017-12-10T01:00:07.585Z,4.47
2017-12-10T01:02:35.034Z,3.05
2017-12-10T01:05:02.428Z,6.85
2017-12-10T01:07:29.848Z,3.53
2017-12-10T01:09:57.276Z,3.85
2017-12-10T01:12:24.764Z,7.45
2017-12-10T01:14:52.179Z,4.47
2017-12-10T01:17:19.595Z,9.93
2017-12-10T01:19:47.107Z,8.13
2017-12-10T01:22:15.305Z,5.40
2017-12-10T01:24:43.480Z,5.62
2017-12-10T01:27:10.918Z,3.33
2017-12-10T01:29:38.377Z,8.00
2017-12-10T01:32:05.866Z,4.50
2017-12-10T01:34:33.277Z,6.15
2017-12-10T01:37:00.687Z,6.07
2017-12-10T01:39:28.197Z,5.68
2017-12-10T01:41:56.371Z,3.67
2017-12-10T01:44:23.886Z,4.70
2017-12-10T01:46:51.292Z,6.10
2017-12-10T01:49:18.733Z,8.23
2017-12-10T01:51:46.900Z,3.35
2017-12-10T01:54:15.831Z,5.12
2017-12-10T01:56:43.244Z,4.18
2017-12-10T01:59:10.844Z,6.32
2017-12-10T02:01:38.248Z,6.72
2017-12-10T02:04:05.684Z,4.87
2017-12-10T02:06:33.861Z,3.40
2017-12-10T02:09:03.043Z,7.43
2017-12-10T02:11:30.498Z,6.90
2017-12-10T02:13:57.977Z,9.60
2017-12-10T02:16:25.455Z,6.65
2017-12-10T02:18:53.616Z,6.37
2017-12-10T02:21:21.027Z,5.50
2017-12-10T02:23:48.516Z,5.32
2017-12-10T02:26:15.992Z,3.83
2017-12-10T02:28:44.212Z,5.28
2017-12-10T02:31:11.676Z,10.10
2017-12-10T02:33:39.100Z,5.87
2017-12-10T02:36:06.546Z,2.50
2017-12-10T02:38:34.949Z,5.65
2017-12-10T02:41:02.428Z,6.07
2017-12-10T02:43:29.839Z,4.10
2017-12-10T02:45:57.265Z,9.10
2017-12-10T02:48:25.548Z,7.70
2017-12-10T02:50:53.076Z,11.00
2017-12-10T02:53:21.258Z,6.45
2017-12-10T02:55:49.684Z,6.12
2017-12-10T02:58:17.096Z,8.02
2017-12-10T03:00:44.641Z,7.20
2017-12-10T03:03:12.800Z,9.20
2017-12-10T03:05:40.320Z,7.70
2017-12-10T03:08:07.737Z,7.47
2017-12-10T03:10:35.160Z,4.78
2017-12-10T03:13:02.676Z,7.45
2017-12-10T03:15:30.092Z,5.72
2017-12-10T03:17:57.636Z,8.15
2017-12-10T03:20:25.800Z,7.85
2017-12-10T03:22:53.319Z,8.02
2017-12-10T03:25:20.740Z,7.12
2017-12-10T03:27:48.161Z,5.12
2017-12-10T03:30:16.381Z,7.12
2017-12-10T03:32:43.857Z,7.65
2017-12-10T03:35:12.057Z,6.90
2017-12-10T03:37:39.468Z,8.23
2017-12-10T03:40:06.896Z,8.82
2017-12-10T03:42:34.339Z,6.32
2017-12-10T03:45:01.743Z,5.25
2017-12-10T03:47:29.265Z,6.62
2017-12-10T03:49:57.449Z,8.68
2017-12-10T03:52:25.642Z,11.07
2017-12-10T03:54:53.060Z,5.72
2017-12-10T03:57:20.528Z,4.00
2017-12-10T03:59:48.009Z,7.72
2017-12-10T04:02:15.432Z,5.50
2017-12-10T04:04:42.852Z,10.65
2017-12-10T04:07:11.070Z,5.47
2017-12-10T04:09:38.492Z,10.80
2017-12-10T04:12:06.037Z,7.65
2017-12-10T04:14:34.191Z,7.40
2017-12-10T04:17:01.722Z,6.78
2017-12-10T04:19:29.132Z,6.78
2017-12-10T04:21:56.640Z,7.37
2017-12-10T04:24:24.173Z,14.07
2017-12-10T04:26:51.597Z,5.87
2017-12-10T04:29:19.003Z,7.72
2017-12-10T04:31:47.223Z,5.47
2017-12-10T04:34:14.718Z,7.82
2017-12-10T04:36:42.294Z,6.47
2017-12-10T04:39:10.489Z,10.93
2017-12-10T04:41:38.691Z,6.22
2017-12-10T04:44:06.120Z,7.97
2017-12-10T04:46:33.536Z,6.68
2017-12-10T04:49:01.724Z,5.65
2017-12-10T04:51:29.140Z,8.00
2017-12-10T04:53:56.560Z,8.50
2017-12-10T04:56:24.005Z,8.60
2017-12-10T04:58:51.491Z,7.90
2017-12-10T05:01:18.976Z,4.95
2017-12-10T05:03:46.384Z,9.75
2017-12-10T05:06:13.804Z,10.85
2017-12-10T05:08:42.987Z,6.87
2017-12-10T05:11:10.432Z,7.70
2017-12-10T05:13:37.888Z,7.18
2017-12-10T05:16:06.074Z,9.80
2017-12-10T05:18:34.513Z,8.85
2017-12-10T05:21:01.945Z,11.65
2017-12-10T05:23:29.364Z,6.32
2017-12-10T05:25:57.577Z,5.35
2017-12-10T05:28:25.013Z,9.57
2017-12-10T05:30:52.440Z,5.75
2017-12-10T05:33:20.668Z,8.25
2017-12-10T05:35:48.120Z,7.40
2017-12-10T05:38:15.604Z,11.60
2017-12-10T05:40:43.090Z,9.80
2017-12-10T05:43:11.281Z,10.38
2017-12-10T05:45:39.460Z,11.63
2017-12-10T05:48:07.639Z,5.78
2017-12-10T05:50:35.163Z,7.93
2017-12-10T05:53:02.648Z,7.65
2017-12-10T05:55:30.132Z,6.18
2017-12-10T05:57:57.636Z,7.20
2017-12-10T06:00:25.101Z,9.63
2017-12-10T06:02:52.511Z,9.73
2017-12-10T06:05:19.965Z,6.78
2017-12-10T06:07:47.436Z,9.20
2017-12-10T06:10:15.023Z,6.55
2017-12-10T06:12:43.185Z,9.68
2017-12-10T06:15:10.709Z,6.20
2017-12-10T06:17:38.189Z,5.40
2017-12-10T06:20:05.608Z,7.50
2017-12-10T06:22:33.123Z,7.60
2017-12-10T06:25:00.640Z,6.93
2017-12-10T06:27:28.119Z,9.45
2017-12-10T06:29:56.318Z,6.20
2017-12-10T06:32:23.731Z,6.45
2017-12-10T06:34:51.151Z,7.50
2017-12-10T06:37:18.564Z,7.82
2017-12-10T06:39:46.044Z,7.47
2017-12-10T06:42:13.465Z,9.57
2017-12-10T06:44:40.904Z,6.43
2017-12-10T06:47:09.108Z,4.10
2017-12-10T06:49:36.592Z,7.12
2017-12-10T06:52:04.012Z,7.03
2017-12-10T06:54:31.447Z,6.05
2017-12-10T06:56:58.933Z,6.87
2017-12-10T06:59:27.093Z,6.75
2017-12-10T07:01:54.620Z,6.15
2017-12-10T07:04:22.032Z,7.35
2017-12-10T07:06:49.460Z,10.80
2017-12-10T07:09:17.652Z,3.80
2017-12-10T07:11:45.829Z,7.50
2017-12-10T07:14:13.240Z,6.18
2017-12-10T07:16:41.479Z,7.45
2017-12-10T07:19:08.871Z,6.32
2017-12-10T07:21:36.313Z,6.60
2017-12-10T07:24:03.797Z,7.43
2017-12-10T07:26:31.281Z,3.97
2017-12-10T07:28:58.760Z,7.82
2017-12-10T07:31:26.948Z,7.45
2017-12-10T07:33:55.163Z,7.80
2017-12-10T07:36:23.361Z,6.82
2017-12-10T07:38:50.852Z,5.25
2017-12-10T07:41:18.279Z,4.32
2017-12-10T07:43:45.700Z,6.05
2017-12-10T07:46:14.004Z,4.47
2017-12-10T07:48:41.416Z,4.90
2017-12-10T07:51:08.827Z,5.50
2017-12-10T07:53:36.248Z,5.65
2017-12-10T07:56:03.668Z,4.57
2017-12-10T07:58:31.632Z,3.17
2017-12-10T08:00:59.053Z,6.07
2017-12-10T08:03:26.488Z,7.20
2017-12-10T08:05:53.900Z,4.25
2017-12-10T08:08:21.324Z,6.70
2017-12-10T08:10:49.550Z,8.65
2017-12-10T08:13:17.747Z,8.13
2017-12-10T08:15:45.232Z,3.95
2017-12-10T08:18:12.708Z,4.87
2017-12-10T08:20:40.132Z,3.30
2017-12-10T08:23:07.574Z,6.55
2017-12-10T08:25:35.776Z,4.32
2017-12-10T08:28:03.195Z,6.30
2017-12-10T08:30:30.641Z,4.07
2017-12-10T08:32:58.060Z,9.15
2017-12-10T08:35:25.604Z,10.18
2017-12-10T08:37:53.764Z,7.95
2017-12-10T08:40:21.175Z,9.32
2017-12-10T08:42:48.657Z,5.12
2017-12-10T08:45:16.020Z,3.55
2017-12-10T08:47:44.316Z,5.72
2017-12-10T08:50:11.721Z,6.90
2017-12-10T08:52:40.029Z,6.15
2017-12-10T08:55:07.512Z,2.78
2017-12-10T08:57:34.992Z,5.82
2017-12-10T09:00:03.160Z,7.72
2017-12-10T09:02:30.672Z,5.43
2017-12-10T09:04:58.153Z,2.25
2017-12-10T09:07:26.327Z,3.65
2017-12-10T09:09:53.836Z,5.45
2017-12-10T09:12:22.020Z,1.98
2017-12-10T09:14:50.208Z,1.75
2017-12-10T09:17:17.717Z,2.55
2017-12-10T09:19:45.305Z,7.12
2017-12-10T09:22:13.505Z,4.80
2017-12-10T09:24:40.928Z,5.47
2017-12-10T09:27:08.344Z,4.15
2017-12-10T09:29:36.527Z,8.50
2017-12-10T09:32:04.051Z,4.22
2017-12-10T09:34:32.247Z,3.00
2017-12-10T09:36:59.727Z,9.15
2017-12-10T09:39:27.933Z,5.32
2017-12-10T09:41:56.113Z,6.97
2017-12-10T09:44:23.521Z,5.70
2017-12-10T09:46:50.989Z,5.90
2017-12-10T09:49:18.600Z,5.60
2017-12-10T09:51:46.058Z,3.00
2017-12-10T09:54:14.354Z,3.47
2017-12-10T09:56:42.537Z,6.50
2017-12-10T09:59:10.859Z,4.43
2017-12-10T10:01:39.025Z,4.00
2017-12-10T10:04:06.449Z,5.90
2017-12-10T10:06:33.864Z,3.65
2017-12-10T10:09:01.276Z,6.53
2017-12-10T10:11:28.789Z,2.50
2017-12-10T10:13:56.205Z,7.03
2017-12-10T10:16:23.654Z,4.25
2017-12-10T10:18:51.880Z,4.70
2017-12-10T10:21:19.330Z,6.35
2017-12-10T10:23:46.748Z,6.05
2017-12-10T10:26:14.164Z,5.80
2017-12-10T10:28:41.576Z,4.10
2017-12-10T10:31:08.997Z,4.18
2017-12-10T10:33:36.555Z,7.47
2017-12-10T10:36:04.032Z,9.55
2017-12-10T10:38:32.217Z,5.97
2017-12-10T10:41:00.407Z,4.55
2017-12-10T10:43:27.938Z,5.22
2017-12-10T10:45:55.360Z,4.45
2017-12-10T10:48:22.801Z,2.72
2017-12-10T10:50:50.237Z,2.22
2017-12-10T10:53:18.608Z,4.12
2017-12-10T10:55:46.893Z,2.60
2017-12-10T10:58:14.339Z,3.97
2017-12-10T11:00:41.855Z,3.92
2017-12-10T11:03:09.281Z,2.28
2017-12-10T11:05:36.724Z,3.37
2017-12-10T11:08:04.525Z,8.57
2017-12-10T11:10:32.106Z,3.50
2017-12-10T11:13:00.273Z,1.52
2017-12-10T11:15:27.797Z,2.10
2017-12-10T11:17:55.276Z,2.42
2017-12-10T11:20:23.480Z,6.55
2017-12-10T11:22:50.932Z,5.85
2017-12-10T11:25:18.376Z,17.98
2017-12-10T11:27:45.806Z,2.65
2017-12-10T11:30:13.224Z,3.25
2017-12-10T11:32:40.648Z,5.28
2017-12-10T11:35:08.088Z,3.65
2017-12-10T11:37:35.507Z,6.05
2017-12-10T11:40:02.944Z,5.80
2017-12-10T11:42:31.156Z,5.45
2017-12-10T11:44:58.634Z,4.90
2017-12-10T11:47:26.051Z,3.42
2017-12-10T11:49:53.469Z,5.03
2017-12-10T11:52:20.985Z,4.10
2017-12-10T11:54:48.555Z,6.97
2017-12-10T11:57:16.758Z,4.80
2017-12-10T11:59:44.942Z,6.53
2017-12-10T12:02:13.116Z,2.67
2017-12-10T12:04:40.548Z,3.03
2017-12-10T12:07:07.964Z,2.92
2017-12-10T12:09:35.393Z,4.55
2017-12-10T12:12:03.572Z,8.13
2017-12-10T12:14:31.176Z,2.00
2017-12-10T12:16:59.356Z,3.33
2017-12-10T12:19:26.869Z,3.67
2017-12-10T12:21:55.053Z,4.87
2017-12-10T12:24:23.270Z,5.57
2017-12-10T12:26:51.473Z,2.90
2017-12-10T12:29:18.888Z,5.25
2017-12-10T12:31:46.383Z,3.87
2017-12-10T12:34:13.749Z,5.22
2017-12-10T12:36:41.191Z,4.68
2017-12-10T12:39:09.396Z,4.37
2017-12-10T12:41:36.819Z,10.70
2017-12-10T12:44:04.237Z,6.97
2017-12-10T12:46:32.416Z,9.45
2017-12-10T12:49:00.054Z,3.15
2017-12-10T12:51:27.467Z,4.32
2017-12-10T12:53:54.917Z,2.25
2017-12-10T12:56:22.331Z,3.95
2017-12-10T12:58:50.212Z,2.80
2017-12-10T13:01:17.625Z,3.15
2017-12-10T13:03:45.136Z,2.87
2017-12-10T13:06:12.623Z,3.12
2017-12-10T13:08:40.105Z,3.20
2017-12-10T13:11:07.592Z,2.47
2017-12-10T13:13:35.013Z,5.07
2017-12-10T13:16:02.453Z,3.33
2017-12-10T13:18:29.877Z,2.87
2017-12-10T13:20:57.312Z,2.97
2017-12-10T13:23:24.729Z,3.17
2017-12-10T13:25:52.182Z,4.65
2017-12-10T13:28:19.678Z,2.53
2017-12-10T13:30:47.096Z,2.70
2017-12-10T13:33:15.276Z,2.92
2017-12-10T13:35:42.700Z,2.55
2017-12-10T13:38:11.280Z,3.28
2017-12-10T13:40:38.821Z,3.00
2017-12-10T13:43:06.292Z,4.22
2017-12-10T13:45:33.722Z,2.97
2017-12-10T13:48:01.132Z,2.85
2017-12-10T13:50:29.319Z,3.25
2017-12-10T13:52:56.739Z,2.35
2017-12-10T13:55:24.304Z,3.20
2017-12-10T13:57:52.500Z,3.20
2017-12-10T14:00:19.948Z,2.03
2017-12-10T14:02:47.360Z,2.05
2017-12-10T14:05:15.550Z,2.10
2017-12-10T14:07:42.968Z,2.40
2017-12-10T14:10:10.444Z,2.15
2017-12-10T14:12:37.873Z,2.35
2017-12-10T14:15:05.279Z,4.50
2017-12-10T14:17:33.502Z,2.53
2017-12-10T14:20:01.660Z,2.72
2017-12-10T14:22:29.092Z,3.67
2017-12-10T14:24:56.501Z,3.05
2017-12-10T14:27:24.361Z,3.33
2017-12-10T14:29:52.760Z,3.70
2017-12-10T14:32:20.305Z,3.50
2017-12-10T14:34:47.716Z,4.95
2017-12-10T14:37:15.908Z,5.70
2017-12-10T14:39:44.092Z,3.97
2017-12-10T14:42:11.613Z,4.93
2017-12-10T14:44:39.025Z,4.75
2017-12-10T14:47:06.449Z,4.30
2017-12-10T14:49:34.629Z,4.30
2017-12-10T14:52:02.058Z,4.47
2017-12-10T14:54:29.531Z,4.53
2017-12-10T14:56:57.093Z,4.25
2017-12-10T14:59:25.576Z,4.20
2017-12-10T15:01:52.992Z,7.07
2017-12-10T15:04:21.176Z,4.75
2017-12-10T15:06:49.380Z,3.60
2017-12-10T15:09:16.877Z,4.20
2017-12-10T15:11:44.296Z,3.60
2017-12-10T15:14:11.740Z,4.25
2017-12-10T15:16:39.152Z,3.60
2017-12-10T15:19:06.589Z,3.92
2017-12-10T15:21:34.804Z,3.42
2017-12-10T15:24:02.292Z,3.75
2017-12-10T15:26:29.799Z,6.80
2017-12-10T15:28:57.204Z,3.80
2017-12-10T15:31:24.635Z,4.15
2017-12-10T15:33:52.832Z,4.10
2017-12-10T15:36:20.281Z,4.20
2017-12-10T15:38:47.700Z,4.28
2017-12-10T15:41:15.212Z,6.40
2017-12-10T15:43:42.605Z,5.10
2017-12-10T15:46:10.017Z,4.82
2017-12-10T15:48:39.196Z,5.18
2017-12-10T15:51:06.636Z,4.62
2017-12-10T15:53:34.824Z,6.18
2017-12-10T15:56:02.995Z,5.05
2017-12-10T15:58:30.949Z,4.82
2017-12-10T16:00:59.237Z,6.20
2017-12-10T16:03:26.821Z,4.93
2017-12-10T16:05:55.021Z,4.72
2017-12-10T16:08:22.925Z,5.35
2017-12-10T16:10:50.395Z,6.43
2017-12-10T16:13:18.568Z,4.78
2017-12-10T16:15:46.748Z,5.00
2017-12-10T16:18:14.272Z,5.00
2017-12-10T16:20:41.753Z,6.50
2017-12-10T16:23:09.976Z,6.68
2017-12-10T16:25:37.396Z,5.72
2017-12-10T16:28:04.921Z,6.47
2017-12-10T16:30:33.083Z,7.75
2017-12-10T16:33:00.497Z,6.00
2017-12-10T16:35:28.699Z,6.28
2017-12-10T16:37:56.192Z,8.70
2017-12-10T16:40:23.669Z,9.07
2017-12-10T16:42:51.088Z,7.28
2017-12-10T16:45:18.540Z,6.20
2017-12-10T16:47:45.964Z,6.32
2017-12-10T16:50:13.392Z,7.68
2017-12-10T16:52:40.796Z,8.95
2017-12-10T16:55:08.257Z,7.35
2017-12-10T16:57:35.732Z,6.80
2017-12-10T17:00:03.212Z,8.73
2017-12-10T17:02:31.417Z,7.32
2017-12-10T17:04:58.840Z,9.18
2017-12-10T17:07:26.252Z,8.73
2017-12-10T17:09:53.769Z,7.87
2017-12-10T17:12:21.180Z,8.38
2017-12-10T17:14:48.620Z,10.20
2017-12-10T17:17:16.040Z,10.45
2017-12-10T17:19:43.480Z,10.52
2017-12-10T17:22:10.900Z,9.07
2017-12-10T17:24:38.311Z,10.20
2017-12-10T17:27:05.844Z,11.80
2017-12-10T17:29:33.312Z,8.98
2017-12-10T17:32:00.732Z,8.30
2017-12-10T17:34:28.156Z,11.20
2017-12-10T17:36:56.348Z,8.38
2017-12-10T17:39:23.859Z,11.40
2017-12-10T17:41:52.024Z,11.52
2017-12-10T17:44:19.536Z,9.68
2017-12-10T17:46:47.728Z,10.85
2017-12-10T17:49:15.916Z,10.20
2017-12-10T17:51:44.107Z,10.32
2017-12-10T17:54:13.051Z,10.32
2017-12-10T17:56:41.224Z,10.95
2017-12-10T17:59:08.640Z,13.30
2017-12-10T18:01:36.060Z,7.28
2017-12-10T18:04:03.493Z,10.93
2017-12-10T18:06:30.978Z,11.68
2017-12-10T18:08:58.371Z,10.57
2017-12-10T18:11:25.881Z,10.10
2017-12-10T18:13:53.296Z,8.95
2017-12-10T18:16:20.808Z,14.35
2017-12-10T18:18:49.216Z,13.10
2017-12-10T18:21:16.628Z,9.25
2017-12-10T18:23:44.049Z,9.32
2017-12-10T18:26:12.232Z,8.80
2017-12-10T18:28:40.612Z,8.85
2017-12-10T18:31:08.872Z,11.23
2017-12-10T18:33:36.300Z,9.95
2017-12-10T18:36:03.736Z,9.18
2017-12-10T18:38:31.176Z,9.30
2017-12-10T18:40:58.704Z,12.18
2017-12-10T18:43:26.125Z,8.30
2017-12-10T18:45:53.540Z,12.30
2017-12-10T18:48:21.034Z,11.35
2017-12-10T18:50:48.429Z,9.30
2017-12-10T18:53:15.940Z,11.35
2017-12-10T18:55:44.203Z,6.87
2017-12-10T18:58:13.341Z,12.55
2017-12-10T19:00:41.280Z,17.40
2017-12-10T19:03:08.757Z,7.93
2017-12-10T19:05:36.744Z,10.95
2017-12-10T19:08:04.265Z,10.30
2017-12-10T19:10:32.791Z,9.80
2017-12-10T19:13:01.166Z,11.95
2017-12-10T19:15:28.669Z,14.45
2017-12-10T19:17:56.149Z,10.43
2017-12-10T19:20:23.604Z,14.27
2017-12-10T19:22:51.135Z,10.65
2017-12-10T19:25:18.628Z,6.37
2017-12-10T19:27:46.104Z,11.55
2017-12-10T19:30:15.193Z,8.15
2017-12-10T19:32:42.745Z,12.52
2017-12-10T19:35:11.056Z,5.68
2017-12-10T19:37:38.464Z,9.32
2017-12-10T19:40:05.923Z,7.82
2017-12-10T19:42:33.304Z,8.02
2017-12-10T19:45:00.848Z,13.10
2017-12-10T19:47:28.268Z,16.37
2017-12-10T19:49:55.692Z,12.85
2017-12-10T19:52:23.924Z,9.23
2017-12-10T19:54:51.349Z,12.02
2017-12-10T19:57:18.881Z,14.25
2017-12-10T19:59:47.076Z,13.60
2017-12-10T20:02:14.492Z,12.52
2017-12-10T20:04:41.912Z,15.85
2017-12-10T20:07:09.423Z,19.60
2017-12-10T20:09:36.848Z,12.93
2017-12-10T20:12:04.290Z,13.95
2017-12-10T20:14:31.773Z,14.40
2017-12-10T20:16:59.193Z,22.45
2017-12-10T20:19:26.636Z,11.18
2017-12-10T20:21:54.113Z,8.30
2017-12-10T20:24:21.545Z,10.77
2017-12-10T20:26:48.956Z,11.95
2017-12-10T20:29:17.140Z,11.73
2017-12-10T20:31:44.564Z,13.23
2017-12-10T20:34:11.983Z,16.35
2017-12-10T20:36:39.414Z,10.77
2017-12-10T20:39:06.897Z,8.57
2017-12-10T20:41:34.384Z,13.00
2017-12-10T20:44:01.879Z,16.95
2017-12-10T20:46:29.292Z,11.15
2017-12-10T20:48:56.704Z,10.30
2017-12-10T20:51:24.896Z,9.90
2017-12-10T20:53:52.312Z,15.15
2017-12-10T20:56:19.796Z,8.30
2017-12-10T20:58:47.264Z,5.60
2017-12-10T21:01:15.464Z,12.27
2017-12-10T21:03:42.881Z,8.10
2017-12-10T21:06:10.303Z,11.12
2017-12-10T21:08:37.813Z,13.75
2017-12-10T21:11:05.232Z,11.35
2017-12-10T21:13:32.652Z,11.40
2017-12-10T21:16:00.159Z,10.68
2017-12-10T21:18:27.572Z,8.00
2017-12-10T21:20:55.004Z,10.95
2017-12-10T21:23:23.184Z,11.15
2017-12-10T21:25:50.608Z,11.20
2017-12-10T21:28:18.042Z,9.05
2017-12-10T21:30:45.574Z,8.80
2017-12-10T21:33:13.751Z,10.90
2017-12-10T21:35:41.920Z,4.93
2017-12-10T21:38:09.356Z,7.82
2017-12-10T21:40:36.771Z,6.35
2017-12-10T21:43:04.206Z,5.00
2017-12-10T21:45:31.636Z,9.20
2017-12-10T21:47:59.064Z,6.22
2017-12-10T21:50:27.243Z,5.28
2017-12-10T21:52:54.748Z,7.47
2017-12-10T21:55:22.932Z,3.75
2017-12-10T21:57:51.121Z,3.55
2017-12-10T22:00:18.625Z,7.35
2017-12-10T22:02:46.845Z,9.18
2017-12-10T22:05:14.320Z,2.50
2017-12-10T22:07:41.745Z,6.05
2017-12-10T22:10:09.280Z,10.23
2017-12-10T22:12:36.703Z,8.02
2017-12-10T22:15:04.127Z,6.37
2017-12-10T22:17:32.313Z,13.48
2017-12-10T22:19:59.728Z,12.48
2017-12-10T22:22:27.208Z,10.15
2017-12-10T22:24:54.684Z,8.05
2017-12-10T22:27:22.115Z,8.30
2017-12-10T22:29:49.653Z,8.00
2017-12-10T22:32:17.824Z,9.10
2017-12-10T22:34:45.249Z,3.95
2017-12-10T22:37:12.661Z,2.40
2017-12-10T22:39:40.094Z,3.60
2017-12-10T22:42:07.584Z,5.20
2017-12-10T22:44:35.055Z,5.35
2017-12-10T22:47:02.467Z,3.10
2017-12-10T22:49:30.023Z,3.87
2017-12-10T22:51:58.180Z,3.60
2017-12-10T22:54:25.708Z,4.32
2017-12-10T22:56:53.121Z,2.90
2017-12-10T22:59:20.568Z,2.42
2017-12-10T23:01:47.984Z,2.10
2017-12-10T23:04:15.425Z,3.08
2017-12-10T23:06:42.849Z,1.85
2017-12-10T23:09:10.272Z,1.85
2017-12-10T23:11:38.488Z,2.35
2017-12-10T23:14:05.914Z,0.98
2017-12-10T23:16:33.357Z,1.77
2017-12-10T23:19:00.837Z,1.80
2017-12-10T23:21:28.256Z,5.15
2017-12-10T23:23:55.677Z,4.20
2017-12-10T23:26:23.856Z,3.12
2017-12-10T23:28:51.381Z,1.98
2017-12-10T23:31:18.864Z,1.55
2017-12-10T23:33:47.056Z,3.53
2017-12-10T23:36:14.539Z,2.28
2017-12-10T23:38:42.740Z,4.35
2017-12-10T23:41:10.165Z,3.83
2017-12-10T23:43:37.604Z,8.15
2017-12-10T23:46:05.809Z,4.03
2017-12-10T23:48:34.209Z,3.33
2017-12-10T23:51:02.396Z,3.42
2017-12-10T23:53:30.612Z,5.57
2017-12-10T23:55:58.096Z,10.85
2017-12-10T23:58:25.514Z,2.35
